sensor_id;sensor_type;location;lat;lon;timestamp;temperature;humidity
70234;DHT22;57622;42.630;23.378;2022-08-16T00:00:05;20.32;64.68
70234;DHT22;57622;42.630;23.378;2022-08-16T00:02:32;20.25;65.09
70234;DHT22;57622;42.630;23.378;2022-08-16T00:04:57;20.20;65.47
70234;DHT22;57622;42.630;23.378;2022-08-16T00:07:23;20.25;64.89
70234;DHT22;57622;42.630;23.378;2022-08-16T00:09:48;20.39;64.48
70234;DHT22;57622;42.630;23.378;2022-08-16T00:12:14;20.56;64.22
70234;DHT22;57622;42.630;23.378;2022-08-16T00:14:39;20.64;63.96
70234;DHT22;57622;42.630;23.378;2022-08-16T00:17:05;20.72;63.31
70234;DHT22;57622;42.630;23.378;2022-08-16T00:19:32;20.66;62.99
70234;DHT22;57622;42.630;23.378;2022-08-16T00:21:59;20.71;62.66
70234;DHT22;57622;42.630;23.378;2022-08-16T00:24:25;20.68;63.29
70234;DHT22;57622;42.630;23.378;2022-08-16T00:26:51;20.51;64.21
70234;DHT22;57622;42.630;23.378;2022-08-16T00:29:17;20.06;66.19
70234;DHT22;57622;42.630;23.378;2022-08-16T00:31:45;19.83;67.20
70234;DHT22;57622;42.630;23.378;2022-08-16T00:34:11;19.50;68.84
70234;DHT22;57622;42.630;23.378;2022-08-16T00:36:37;19.40;69.00
70234;DHT22;57622;42.630;23.378;2022-08-16T00:39:03;19.35;69.09
70234;DHT22;57622;42.630;23.378;2022-08-16T00:41:30;19.50;68.85
70234;DHT22;57622;42.630;23.378;2022-08-16T00:43:59;19.39;69.16
70234;DHT22;57622;42.630;23.378;2022-08-16T00:46:32;19.58;68.70
70234;DHT22;57622;42.630;23.378;2022-08-16T00:48:58;19.66;68.46
70234;DHT22;57622;42.630;23.378;2022-08-16T00:51:26;19.71;68.45
70234;DHT22;57622;42.630;23.378;2022-08-16T00:53:53;19.77;67.83
70234;DHT22;57622;42.630;23.378;2022-08-16T00:56:25;19.67;68.81
70234;DHT22;57622;42.630;23.378;2022-08-16T00:58:52;19.73;67.70
70234;DHT22;57622;42.630;23.378;2022-08-16T01:01:18;19.90;67.13
70234;DHT22;57622;42.630;23.378;2022-08-16T01:03:47;19.93;67.29
70234;DHT22;57622;42.630;23.378;2022-08-16T01:06:14;20.01;67.00
70234;DHT22;57622;42.630;23.378;2022-08-16T01:08:41;20.11;66.44
70234;DHT22;57622;42.630;23.378;2022-08-16T01:11:08;19.96;66.98
70234;DHT22;57622;42.630;23.378;2022-08-16T01:13:36;19.69;68.11
70234;DHT22;57622;42.630;23.378;2022-08-16T01:16:15;19.52;68.66
70234;DHT22;57622;42.630;23.378;2022-08-16T01:18:49;19.55;68.36
70234;DHT22;57622;42.630;23.378;2022-08-16T01:26:36;19.46;68.20
70234;DHT22;57622;42.630;23.378;2022-08-16T01:29:07;19.46;68.67
70234;DHT22;57622;42.630;23.378;2022-08-16T01:31:37;19.59;67.11
70234;DHT22;57622;42.630;23.378;2022-08-16T01:34:02;19.70;66.84
70234;DHT22;57622;42.630;23.378;2022-08-16T01:36:28;19.69;66.63
70234;DHT22;57622;42.630;23.378;2022-08-16T01:38:54;19.70;66.53
70234;DHT22;57622;42.630;23.378;2022-08-16T01:41:26;19.79;66.41
70234;DHT22;57622;42.630;23.378;2022-08-16T01:43:54;19.76;66.89
70234;DHT22;57622;42.630;23.378;2022-08-16T01:46:30;19.86;68.03
70234;DHT22;57622;42.630;23.378;2022-08-16T01:49:04;20.01;67.33
70234;DHT22;57622;42.630;23.378;2022-08-16T01:51:31;20.10;66.96
70234;DHT22;57622;42.630;23.378;2022-08-16T01:53:57;20.21;66.98
70234;DHT22;57622;42.630;23.378;2022-08-16T01:56:23;20.25;66.85
70234;DHT22;57622;42.630;23.378;2022-08-16T01:58:51;20.31;66.74
70234;DHT22;57622;42.630;23.378;2022-08-16T02:01:17;20.37;66.85
70234;DHT22;57622;42.630;23.378;2022-08-16T02:03:42;20.45;66.43
70234;DHT22;57622;42.630;23.378;2022-08-16T02:06:08;20.68;65.94
70234;DHT22;57622;42.630;23.378;2022-08-16T02:08:33;20.80;65.47
70234;DHT22;57622;42.630;23.378;2022-08-16T02:10:59;20.83;65.15
70234;DHT22;57622;42.630;23.378;2022-08-16T02:13:26;20.80;65.25
70234;DHT22;57622;42.630;23.378;2022-08-16T02:15:52;20.78;65.65
70234;DHT22;57622;42.630;23.378;2022-08-16T02:18:17;20.69;66.22
70234;DHT22;57622;42.630;23.378;2022-08-16T02:20:46;20.72;66.73
70234;DHT22;57622;42.630;23.378;2022-08-16T02:23:14;20.79;66.86
70234;DHT22;57622;42.630;23.378;2022-08-16T02:25:40;20.95;66.41
70234;DHT22;57622;42.630;23.378;2022-08-16T02:28:08;20.93;67.36
70234;DHT22;57622;42.630;23.378;2022-08-16T02:30:33;20.96;67.75
70234;DHT22;57622;42.630;23.378;2022-08-16T02:32:59;20.93;68.18
70234;DHT22;57622;42.630;23.378;2022-08-16T02:35:25;20.83;68.52
70234;DHT22;57622;42.630;23.378;2022-08-16T02:37:52;20.85;68.48
70234;DHT22;57622;42.630;23.378;2022-08-16T02:40:19;20.80;68.70
70234;DHT22;57622;42.630;23.378;2022-08-16T02:42:46;20.73;68.61
70234;DHT22;57622;42.630;23.378;2022-08-16T02:45:12;20.72;68.73
70234;DHT22;57622;42.630;23.378;2022-08-16T02:47:38;20.79;68.27
70234;DHT22;57622;42.630;23.378;2022-08-16T02:50:04;20.79;68.30
70234;DHT22;57622;42.630;23.378;2022-08-16T02:52:30;20.85;68.06
70234;DHT22;57622;42.630;23.378;2022-08-16T02:54:56;20.89;68.07
70234;DHT22;57622;42.630;23.378;2022-08-16T02:57:21;20.90;67.89
70234;DHT22;57622;42.630;23.378;2022-08-16T02:59:47;20.92;68.02
70234;DHT22;57622;42.630;23.378;2022-08-16T03:02:13;20.83;68.10
70234;DHT22;57622;42.630;23.378;2022-08-16T03:04:39;20.87;68.09
70234;DHT22;57622;42.630;23.378;2022-08-16T03:07:05;20.93;67.88
70234;DHT22;57622;42.630;23.378;2022-08-16T03:09:31;20.95;67.62
70234;DHT22;57622;42.630;23.378;2022-08-16T03:11:57;21.00;67.64
70234;DHT22;57622;42.630;23.378;2022-08-16T03:14:22;21.08;67.64
70234;DHT22;57622;42.630;23.378;2022-08-16T03:16:48;21.23;67.16
70234;DHT22;57622;42.630;23.378;2022-08-16T03:19:13;21.27;67.19
70234;DHT22;57622;42.630;23.378;2022-08-16T03:21:40;20.99;67.69
70234;DHT22;57622;42.630;23.378;2022-08-16T03:24:06;20.75;68.52
70234;DHT22;57622;42.630;23.378;2022-08-16T03:26:32;20.52;69.09
70234;DHT22;57622;42.630;23.378;2022-08-16T03:28:58;20.28;69.88
70234;DHT22;57622;42.630;23.378;2022-08-16T03:31:23;20.25;69.86
70234;DHT22;57622;42.630;23.378;2022-08-16T03:33:49;20.41;69.40
70234;DHT22;57622;42.630;23.378;2022-08-16T03:36:15;20.44;69.03
70234;DHT22;57622;42.630;23.378;2022-08-16T03:38:40;20.48;68.80
70234;DHT22;57622;42.630;23.378;2022-08-16T03:41:06;20.48;68.67
70234;DHT22;57622;42.630;23.378;2022-08-16T03:43:32;20.39;69.05
70234;DHT22;57622;42.630;23.378;2022-08-16T03:45:59;20.44;68.64
70234;DHT22;57622;42.630;23.378;2022-08-16T03:48:28;20.48;68.64
70234;DHT22;57622;42.630;23.378;2022-08-16T03:50:54;20.53;68.62
70234;DHT22;57622;42.630;23.378;2022-08-16T03:53:19;20.61;68.32
70234;DHT22;57622;42.630;23.378;2022-08-16T03:55:45;20.73;68.03
70234;DHT22;57622;42.630;23.378;2022-08-16T03:58:11;20.75;67.71
70234;DHT22;57622;42.630;23.378;2022-08-16T04:00:36;20.82;67.99
70234;DHT22;57622;42.630;23.378;2022-08-16T04:03:03;20.86;68.01
70234;DHT22;57622;42.630;23.378;2022-08-16T04:05:34;21.10;67.22
70234;DHT22;57622;42.630;23.378;2022-08-16T04:08:02;21.10;66.91
70234;DHT22;57622;42.630;23.378;2022-08-16T04:10:27;21.06;67.22
70234;DHT22;57622;42.630;23.378;2022-08-16T04:12:53;21.16;67.13
70234;DHT22;57622;42.630;23.378;2022-08-16T04:15:18;21.06;67.30
70234;DHT22;57622;42.630;23.378;2022-08-16T04:17:44;21.11;66.88
70234;DHT22;57622;42.630;23.378;2022-08-16T04:20:12;20.95;66.38
70234;DHT22;57622;42.630;23.378;2022-08-16T04:22:38;20.90;66.20
70234;DHT22;57622;42.630;23.378;2022-08-16T04:25:05;20.80;66.30
70234;DHT22;57622;42.630;23.378;2022-08-16T04:27:31;20.83;66.17
70234;DHT22;57622;42.630;23.378;2022-08-16T04:29:56;20.90;66.23
70234;DHT22;57622;42.630;23.378;2022-08-16T04:32:22;21.06;65.36
70234;DHT22;57622;42.630;23.378;2022-08-16T04:34:48;21.13;65.14
70234;DHT22;57622;42.630;23.378;2022-08-16T04:37:14;21.14;65.28
70234;DHT22;57622;42.630;23.378;2022-08-16T04:39:39;21.14;65.45
70234;DHT22;57622;42.630;23.378;2022-08-16T04:42:05;21.27;65.39
70234;DHT22;57622;42.630;23.378;2022-08-16T04:44:31;21.36;64.90
70234;DHT22;57622;42.630;23.378;2022-08-16T04:46:57;21.43;64.78
70234;DHT22;57622;42.630;23.378;2022-08-16T04:49:23;21.47;64.68
70234;DHT22;57622;42.630;23.378;2022-08-16T04:51:48;21.45;65.01
70234;DHT22;57622;42.630;23.378;2022-08-16T04:54:14;21.51;65.05
70234;DHT22;57622;42.630;23.378;2022-08-16T04:56:40;21.43;65.00
70234;DHT22;57622;42.630;23.378;2022-08-16T04:59:06;21.37;65.64
70234;DHT22;57622;42.630;23.378;2022-08-16T05:01:33;21.34;65.51
70234;DHT22;57622;42.630;23.378;2022-08-16T05:03:59;21.08;65.98
70234;DHT22;57622;42.630;23.378;2022-08-16T05:06:25;21.06;67.33
70234;DHT22;57622;42.630;23.378;2022-08-16T05:08:50;21.19;67.56
70234;DHT22;57622;42.630;23.378;2022-08-16T05:11:16;21.10;67.77
70234;DHT22;57622;42.630;23.378;2022-08-16T05:13:44;21.36;67.20
70234;DHT22;57622;42.630;23.378;2022-08-16T05:16:13;21.36;67.34
70234;DHT22;57622;42.630;23.378;2022-08-16T05:18:38;21.45;67.16
70234;DHT22;57622;42.630;23.378;2022-08-16T05:21:04;21.58;66.84
70234;DHT22;57622;42.630;23.378;2022-08-16T05:23:30;21.65;66.65
70234;DHT22;57622;42.630;23.378;2022-08-16T05:25:55;21.53;66.57
70234;DHT22;57622;42.630;23.378;2022-08-16T05:28:21;21.54;66.68
70234;DHT22;57622;42.630;23.378;2022-08-16T05:30:46;21.64;66.44
70234;DHT22;57622;42.630;23.378;2022-08-16T05:33:12;21.64;66.73
70234;DHT22;57622;42.630;23.378;2022-08-16T05:35:37;21.69;66.77
70234;DHT22;57622;42.630;23.378;2022-08-16T05:38:03;21.82;66.47
70234;DHT22;57622;42.630;23.378;2022-08-16T05:40:29;21.94;66.27
70234;DHT22;57622;42.630;23.378;2022-08-16T05:42:54;21.86;66.70
70234;DHT22;57622;42.630;23.378;2022-08-16T05:45:20;21.92;66.63
70234;DHT22;57622;42.630;23.378;2022-08-16T05:47:45;21.99;65.60
70234;DHT22;57622;42.630;23.378;2022-08-16T05:50:11;21.98;65.60
70234;DHT22;57622;42.630;23.378;2022-08-16T05:52:36;22.02;65.81
70234;DHT22;57622;42.630;23.378;2022-08-16T05:55:03;21.99;66.83
70234;DHT22;57622;42.630;23.378;2022-08-16T05:57:29;22.12;66.04
70234;DHT22;57622;42.630;23.378;2022-08-16T05:59:55;22.15;65.76
70234;DHT22;57622;42.630;23.378;2022-08-16T06:02:20;21.95;66.43
70234;DHT22;57622;42.630;23.378;2022-08-16T06:04:49;22.10;66.08
70234;DHT22;57622;42.630;23.378;2022-08-16T06:07:14;22.22;65.44
70234;DHT22;57622;42.630;23.378;2022-08-16T06:09:40;22.37;65.91
70234;DHT22;57622;42.630;23.378;2022-08-16T06:12:06;22.47;65.39
70234;DHT22;57622;42.630;23.378;2022-08-16T06:14:32;22.60;64.77
70234;DHT22;57622;42.630;23.378;2022-08-16T06:16:57;22.75;64.22
70234;DHT22;57622;42.630;23.378;2022-08-16T06:19:23;22.78;64.05
70234;DHT22;57622;42.630;23.378;2022-08-16T06:21:48;22.84;63.57
70234;DHT22;57622;42.630;23.378;2022-08-16T06:24:14;22.92;63.59
70234;DHT22;57622;42.630;23.378;2022-08-16T06:26:40;22.97;64.34
70234;DHT22;57622;42.630;23.378;2022-08-16T06:29:05;22.88;63.54
70234;DHT22;57622;42.630;23.378;2022-08-16T06:31:31;22.98;64.11
70234;DHT22;57622;42.630;23.378;2022-08-16T06:33:56;23.12;63.82
70234;DHT22;57622;42.630;23.378;2022-08-16T06:36:22;23.28;63.35
70234;DHT22;57622;42.630;23.378;2022-08-16T06:38:49;23.39;62.33
70234;DHT22;57622;42.630;23.378;2022-08-16T06:41:15;23.37;62.77
70234;DHT22;57622;42.630;23.378;2022-08-16T06:43:40;23.49;62.86
70234;DHT22;57622;42.630;23.378;2022-08-16T06:46:07;23.62;62.12
70234;DHT22;57622;42.630;23.378;2022-08-16T06:48:35;23.79;61.35
70234;DHT22;57622;42.630;23.378;2022-08-16T06:51:05;23.81;60.79
70234;DHT22;57622;42.630;23.378;2022-08-16T06:53:32;23.92;61.16
70234;DHT22;57622;42.630;23.378;2022-08-16T06:55:59;24.00;59.93
70234;DHT22;57622;42.630;23.378;2022-08-16T06:58:24;24.11;60.30
70234;DHT22;57622;42.630;23.378;2022-08-16T07:00:50;24.22;59.80
70234;DHT22;57622;42.630;23.378;2022-08-16T07:03:16;24.22;59.35
70234;DHT22;57622;42.630;23.378;2022-08-16T07:05:42;24.28;59.18
70234;DHT22;57622;42.630;23.378;2022-08-16T07:08:08;24.47;58.97
70234;DHT22;57622;42.630;23.378;2022-08-16T07:10:35;24.67;58.85
70234;DHT22;57622;42.630;23.378;2022-08-16T07:13:01;24.75;58.44
70234;DHT22;57622;42.630;23.378;2022-08-16T07:15:27;24.90;57.85
70234;DHT22;57622;42.630;23.378;2022-08-16T07:17:53;24.83;57.25
70234;DHT22;57622;42.630;23.378;2022-08-16T07:20:18;25.02;57.35
70234;DHT22;57622;42.630;23.378;2022-08-16T07:22:47;25.12;57.14
70234;DHT22;57622;42.630;23.378;2022-08-16T07:25:13;25.23;56.52
70234;DHT22;57622;42.630;23.378;2022-08-16T07:27:39;25.31;56.85
70234;DHT22;57622;42.630;23.378;2022-08-16T07:30:09;25.43;57.21
70234;DHT22;57622;42.630;23.378;2022-08-16T07:32:35;25.51;57.12
70234;DHT22;57622;42.630;23.378;2022-08-16T07:35:01;25.60;56.57
70234;DHT22;57622;42.630;23.378;2022-08-16T07:37:26;25.70;56.68
70234;DHT22;57622;42.630;23.378;2022-08-16T07:39:52;25.81;56.77
70234;DHT22;57622;42.630;23.378;2022-08-16T07:42:18;25.80;56.07
70234;DHT22;57622;42.630;23.378;2022-08-16T07:44:43;25.86;55.60
70234;DHT22;57622;42.630;23.378;2022-08-16T07:47:09;26.02;55.49
70234;DHT22;57622;42.630;23.378;2022-08-16T07:49:34;26.06;54.56
70234;DHT22;57622;42.630;23.378;2022-08-16T07:51:59;26.15;53.81
70234;DHT22;57622;42.630;23.378;2022-08-16T07:54:25;26.06;54.00
70234;DHT22;57622;42.630;23.378;2022-08-16T07:56:50;26.08;55.50
70234;DHT22;57622;42.630;23.378;2022-08-16T07:59:16;26.19;54.53
70234;DHT22;57622;42.630;23.378;2022-08-16T08:01:42;26.23;54.53
70234;DHT22;57622;42.630;23.378;2022-08-16T08:04:07;26.42;53.95
70234;DHT22;57622;42.630;23.378;2022-08-16T08:06:37;26.49;53.46
70234;DHT22;57622;42.630;23.378;2022-08-16T08:09:03;26.50;53.73
70234;DHT22;57622;42.630;23.378;2022-08-16T08:11:30;26.56;53.39
70234;DHT22;57622;42.630;23.378;2022-08-16T08:13:57;26.79;54.15
70234;DHT22;57622;42.630;23.378;2022-08-16T08:16:25;26.91;53.67
70234;DHT22;57622;42.630;23.378;2022-08-16T08:18:50;26.93;53.36
70234;DHT22;57622;42.630;23.378;2022-08-16T08:21:20;27.07;53.43
70234;DHT22;57622;42.630;23.378;2022-08-16T08:23:45;27.20;53.97
70234;DHT22;57622;42.630;23.378;2022-08-16T08:26:11;27.39;52.63
70234;DHT22;57622;42.630;23.378;2022-08-16T08:28:37;27.39;52.84
70234;DHT22;57622;42.630;23.378;2022-08-16T08:31:03;27.37;51.86
70234;DHT22;57622;42.630;23.378;2022-08-16T08:33:30;27.48;51.93
70234;DHT22;57622;42.630;23.378;2022-08-16T08:35:58;27.65;51.63
70234;DHT22;57622;42.630;23.378;2022-08-16T08:38:24;27.70;51.39
70234;DHT22;57622;42.630;23.378;2022-08-16T08:40:49;27.90;51.66
70234;DHT22;57622;42.630;23.378;2022-08-16T08:43:14;27.90;50.90
70234;DHT22;57622;42.630;23.378;2022-08-16T08:45:41;28.03;50.01
70234;DHT22;57622;42.630;23.378;2022-08-16T08:48:07;27.94;49.20
70234;DHT22;57622;42.630;23.378;2022-08-16T08:50:32;27.97;49.49
70234;DHT22;57622;42.630;23.378;2022-08-16T08:52:58;28.01;48.38
70234;DHT22;57622;42.630;23.378;2022-08-16T08:55:25;28.13;48.60
70234;DHT22;57622;42.630;23.378;2022-08-16T08:57:52;28.36;48.60
70234;DHT22;57622;42.630;23.378;2022-08-16T09:00:20;28.69;48.51
70234;DHT22;57622;42.630;23.378;2022-08-16T09:02:48;28.59;47.27
70234;DHT22;57622;42.630;23.378;2022-08-16T09:05:14;28.72;47.15
70234;DHT22;57622;42.630;23.378;2022-08-16T09:07:40;28.67;47.07
70234;DHT22;57622;42.630;23.378;2022-08-16T09:10:06;28.85;46.59
70234;DHT22;57622;42.630;23.378;2022-08-16T09:12:33;28.91;46.77
70234;DHT22;57622;42.630;23.378;2022-08-16T09:14:58;29.15;46.33
70234;DHT22;57622;42.630;23.378;2022-08-16T09:17:25;29.33;46.68
70234;DHT22;57622;42.630;23.378;2022-08-16T09:19:50;29.51;46.35
70234;DHT22;57622;42.630;23.378;2022-08-16T09:22:17;29.73;44.37
70234;DHT22;57622;42.630;23.378;2022-08-16T09:24:43;29.84;44.88
70234;DHT22;57622;42.630;23.378;2022-08-16T09:27:09;29.89;43.95
70234;DHT22;57622;42.630;23.378;2022-08-16T09:29:34;30.06;43.92
70234;DHT22;57622;42.630;23.378;2022-08-16T09:32:00;30.26;43.33
70234;DHT22;57622;42.630;23.378;2022-08-16T09:34:25;30.33;42.25
70234;DHT22;57622;42.630;23.378;2022-08-16T09:36:51;30.33;42.75
70234;DHT22;57622;42.630;23.378;2022-08-16T09:39:16;30.36;41.87
70234;DHT22;57622;42.630;23.378;2022-08-16T09:41:45;30.43;41.16
70234;DHT22;57622;42.630;23.378;2022-08-16T09:44:17;30.55;43.23
70234;DHT22;57622;42.630;23.378;2022-08-16T09:46:44;30.57;41.72
70234;DHT22;57622;42.630;23.378;2022-08-16T09:49:10;30.74;39.99
70234;DHT22;57622;42.630;23.378;2022-08-16T09:51:35;30.94;39.98
70234;DHT22;57622;42.630;23.378;2022-08-16T09:54:02;31.02;38.61
70234;DHT22;57622;42.630;23.378;2022-08-16T09:56:31;31.10;38.91
70234;DHT22;57622;42.630;23.378;2022-08-16T09:58:58;30.95;39.03
70234;DHT22;57622;42.630;23.378;2022-08-16T10:01:24;30.90;38.22
70234;DHT22;57622;42.630;23.378;2022-08-16T10:03:51;30.91;38.38
70234;DHT22;57622;42.630;23.378;2022-08-16T10:06:20;31.08;37.99
70234;DHT22;57622;42.630;23.378;2022-08-16T10:08:47;31.17;39.31
70234;DHT22;57622;42.630;23.378;2022-08-16T10:11:13;31.32;38.50
70234;DHT22;57622;42.630;23.378;2022-08-16T10:13:57;31.42;38.38
70234;DHT22;57622;42.630;23.378;2022-08-16T10:16:23;31.22;37.54
70234;DHT22;57622;42.630;23.378;2022-08-16T10:18:48;31.15;38.07
70234;DHT22;57622;42.630;23.378;2022-08-16T10:21:14;31.30;37.69
70234;DHT22;57622;42.630;23.378;2022-08-16T10:23:42;31.37;36.23
70234;DHT22;57622;42.630;23.378;2022-08-16T10:26:08;31.46;36.03
70234;DHT22;57622;42.630;23.378;2022-08-16T10:28:34;31.37;34.91
70234;DHT22;57622;42.630;23.378;2022-08-16T10:31:00;31.35;35.77
70234;DHT22;57622;42.630;23.378;2022-08-16T10:33:27;31.61;36.50
70234;DHT22;57622;42.630;23.378;2022-08-16T10:35:53;31.75;35.90
70234;DHT22;57622;42.630;23.378;2022-08-16T10:38:19;31.86;37.24
70234;DHT22;57622;42.630;23.378;2022-08-16T10:40:45;31.68;34.58
70234;DHT22;57622;42.630;23.378;2022-08-16T10:43:11;31.38;34.51
70234;DHT22;57622;42.630;23.378;2022-08-16T10:45:37;31.57;34.76
70234;DHT22;57622;42.630;23.378;2022-08-16T10:48:05;31.63;34.67
70234;DHT22;57622;42.630;23.378;2022-08-16T10:50:31;31.70;34.15
70234;DHT22;57622;42.630;23.378;2022-08-16T10:52:57;31.92;33.64
70234;DHT22;57622;42.630;23.378;2022-08-16T10:55:23;32.10;33.76
70234;DHT22;57622;42.630;23.378;2022-08-16T10:57:48;32.30;35.45
70234;DHT22;57622;42.630;23.378;2022-08-16T11:00:16;32.26;33.73
70234;DHT22;57622;42.630;23.378;2022-08-16T11:02:42;32.34;34.50
70234;DHT22;57622;42.630;23.378;2022-08-16T11:05:11;32.56;36.45
70234;DHT22;57622;42.630;23.378;2022-08-16T11:07:38;32.60;36.37
70234;DHT22;57622;42.630;23.378;2022-08-16T11:10:05;32.34;36.86
70234;DHT22;57622;42.630;23.378;2022-08-16T11:12:31;32.24;35.64
70234;DHT22;57622;42.630;23.378;2022-08-16T11:14:56;32.30;35.28
70234;DHT22;57622;42.630;23.378;2022-08-16T11:17:21;32.27;36.13
70234;DHT22;57622;42.630;23.378;2022-08-16T11:19:47;32.50;33.92
70234;DHT22;57622;42.630;23.378;2022-08-16T11:22:13;32.64;34.79
70234;DHT22;57622;42.630;23.378;2022-08-16T11:24:39;32.57;34.35
70234;DHT22;57622;42.630;23.378;2022-08-16T11:27:06;32.53;34.57
70234;DHT22;57622;42.630;23.378;2022-08-16T11:29:35;32.54;34.49
70234;DHT22;57622;42.630;23.378;2022-08-16T11:32:01;32.30;34.83
70234;DHT22;57622;42.630;23.378;2022-08-16T11:34:29;32.28;34.55
70234;DHT22;57622;42.630;23.378;2022-08-16T11:36:55;32.26;34.31
70234;DHT22;57622;42.630;23.378;2022-08-16T11:39:21;31.99;34.83
70234;DHT22;57622;42.630;23.378;2022-08-16T11:41:46;31.58;35.42
70234;DHT22;57622;42.630;23.378;2022-08-16T11:44:12;31.61;36.97
70234;DHT22;57622;42.630;23.378;2022-08-16T11:46:37;31.94;35.90
70234;DHT22;57622;42.630;23.378;2022-08-16T11:49:04;32.13;35.62
70234;DHT22;57622;42.630;23.378;2022-08-16T11:51:29;32.09;35.44
70234;DHT22;57622;42.630;23.378;2022-08-16T11:53:55;32.09;36.17
70234;DHT22;57622;42.630;23.378;2022-08-16T11:56:21;31.88;36.57
70234;DHT22;57622;42.630;23.378;2022-08-16T11:58:46;31.61;37.19
70234;DHT22;57622;42.630;23.378;2022-08-16T12:01:12;31.59;37.45
70234;DHT22;57622;42.630;23.378;2022-08-16T12:03:40;31.32;37.70
70234;DHT22;57622;42.630;23.378;2022-08-16T12:06:12;31.21;37.44
70234;DHT22;57622;42.630;23.378;2022-08-16T12:08:40;31.21;37.95
70234;DHT22;57622;42.630;23.378;2022-08-16T12:11:06;30.93;36.24
70234;DHT22;57622;42.630;23.378;2022-08-16T12:13:32;30.98;36.97
70234;DHT22;57622;42.630;23.378;2022-08-16T12:15:58;31.32;36.52
70234;DHT22;57622;42.630;23.378;2022-08-16T12:18:23;31.59;34.57
70234;DHT22;57622;42.630;23.378;2022-08-16T12:20:49;31.83;34.66
70234;DHT22;57622;42.630;23.378;2022-08-16T12:23:15;31.89;35.41
70234;DHT22;57622;42.630;23.378;2022-08-16T12:25:41;31.83;34.45
70234;DHT22;57622;42.630;23.378;2022-08-16T12:28:07;32.10;35.27
70234;DHT22;57622;42.630;23.378;2022-08-16T12:30:36;32.37;34.86
70234;DHT22;57622;42.630;23.378;2022-08-16T12:33:04;32.44;34.36
70234;DHT22;57622;42.630;23.378;2022-08-16T12:35:31;32.43;34.51
70234;DHT22;57622;42.630;23.378;2022-08-16T12:37:59;32.27;34.71
70234;DHT22;57622;42.630;23.378;2022-08-16T12:40:37;32.24;34.88
70234;DHT22;57622;42.630;23.378;2022-08-16T12:43:05;32.31;35.11
70234;DHT22;57622;42.630;23.378;2022-08-16T12:45:41;32.56;35.13
70234;DHT22;57622;42.630;23.378;2022-08-16T12:48:09;32.44;33.48
70234;DHT22;57622;42.630;23.378;2022-08-16T12:50:54;32.24;34.31
70234;DHT22;57622;42.630;23.378;2022-08-16T12:53:19;32.28;34.38
70234;DHT22;57622;42.630;23.378;2022-08-16T12:55:46;32.43;33.97
70234;DHT22;57622;42.630;23.378;2022-08-16T12:58:12;32.53;34.65
70234;DHT22;57622;42.630;23.378;2022-08-16T13:00:39;32.28;35.49
70234;DHT22;57622;42.630;23.378;2022-08-16T13:03:05;32.48;35.44
70234;DHT22;57622;42.630;23.378;2022-08-16T13:05:35;32.31;35.86
70234;DHT22;57622;42.630;23.378;2022-08-16T13:08:08;32.34;35.41
70234;DHT22;57622;42.630;23.378;2022-08-16T13:10:33;32.27;35.29
70234;DHT22;57622;42.630;23.378;2022-08-16T13:12:59;32.30;34.75
70234;DHT22;57622;42.630;23.378;2022-08-16T13:15:27;32.16;35.58
70234;DHT22;57622;42.630;23.378;2022-08-16T13:17:53;31.97;35.47
70234;DHT22;57622;42.630;23.378;2022-08-16T13:20:21;31.96;34.79
70234;DHT22;57622;42.630;23.378;2022-08-16T13:22:56;32.21;35.56
70234;DHT22;57622;42.630;23.378;2022-08-16T13:25:24;32.05;35.73
70234;DHT22;57622;42.630;23.378;2022-08-16T13:27:51;32.13;35.08
70234;DHT22;57622;42.630;23.378;2022-08-16T13:30:17;32.30;34.68
70234;DHT22;57622;42.630;23.378;2022-08-16T13:32:43;32.30;34.92
70234;DHT22;57622;42.630;23.378;2022-08-16T13:35:08;32.44;34.63
70234;DHT22;57622;42.630;23.378;2022-08-16T13:37:34;32.45;34.35
70234;DHT22;57622;42.630;23.378;2022-08-16T13:39:59;32.23;33.04
70234;DHT22;57622;42.630;23.378;2022-08-16T13:42:25;32.41;33.75
70234;DHT22;57622;42.630;23.378;2022-08-16T13:44:51;32.44;33.59
70234;DHT22;57622;42.630;23.378;2022-08-16T13:47:18;32.38;33.46
70234;DHT22;57622;42.630;23.378;2022-08-16T13:49:43;32.27;32.63
70234;DHT22;57622;42.630;23.378;2022-08-16T13:52:11;32.16;31.84
70234;DHT22;57622;42.630;23.378;2022-08-16T13:54:37;32.06;28.74
70234;DHT22;57622;42.630;23.378;2022-08-16T13:57:02;32.02;28.62
70234;DHT22;57622;42.630;23.378;2022-08-16T13:59:28;31.86;27.35
70234;DHT22;57622;42.630;23.378;2022-08-16T14:01:55;31.75;27.81
70234;DHT22;57622;42.630;23.378;2022-08-16T14:04:27;31.72;26.87
70234;DHT22;57622;42.630;23.378;2022-08-16T14:06:57;31.66;28.00
70234;DHT22;57622;42.630;23.378;2022-08-16T14:09:23;31.57;28.02
70234;DHT22;57622;42.630;23.378;2022-08-16T14:11:49;31.48;27.58
70234;DHT22;57622;42.630;23.378;2022-08-16T14:14:15;31.49;27.64
70234;DHT22;57622;42.630;23.378;2022-08-16T14:16:41;31.34;28.25
70234;DHT22;57622;42.630;23.378;2022-08-16T14:19:06;31.46;28.70
70234;DHT22;57622;42.630;23.378;2022-08-16T14:21:33;31.51;28.60
70234;DHT22;57622;42.630;23.378;2022-08-16T14:23:58;31.35;28.76
70234;DHT22;57622;42.630;23.378;2022-08-16T14:26:26;31.37;29.98
70234;DHT22;57622;42.630;23.378;2022-08-16T14:28:52;31.32;29.76
70234;DHT22;57622;42.630;23.378;2022-08-16T14:31:18;31.11;29.69
70234;DHT22;57622;42.630;23.378;2022-08-16T14:33:44;30.80;29.91
70234;DHT22;57622;42.630;23.378;2022-08-16T14:36:10;30.72;30.25
70234;DHT22;57622;42.630;23.378;2022-08-16T14:38:35;30.62;30.79
70234;DHT22;57622;42.630;23.378;2022-08-16T14:41:01;30.56;30.99
70234;DHT22;57622;42.630;23.378;2022-08-16T14:43:26;30.47;31.05
70234;DHT22;57622;42.630;23.378;2022-08-16T14:45:52;30.44;32.15
70234;DHT22;57622;42.630;23.378;2022-08-16T14:48:19;30.37;31.62
70234;DHT22;57622;42.630;23.378;2022-08-16T14:50:45;30.37;32.60
70234;DHT22;57622;42.630;23.378;2022-08-16T14:53:10;30.26;33.02
70234;DHT22;57622;42.630;23.378;2022-08-16T14:55:37;30.21;33.34
70234;DHT22;57622;42.630;23.378;2022-08-16T14:58:04;30.09;33.12
70234;DHT22;57622;42.630;23.378;2022-08-16T15:00:30;30.11;33.87
70234;DHT22;57622;42.630;23.378;2022-08-16T15:02:57;30.06;34.19
70234;DHT22;57622;42.630;23.378;2022-08-16T15:05:25;30.06;34.34
70234;DHT22;57622;42.630;23.378;2022-08-16T15:07:52;30.04;34.47
70234;DHT22;57622;42.630;23.378;2022-08-16T15:10:19;30.05;34.26
70234;DHT22;57622;42.630;23.378;2022-08-16T15:12:47;29.92;34.42
70234;DHT22;57622;42.630;23.378;2022-08-16T15:15:16;29.89;34.70